Boraciia, Brazil
Current Conditions -  °F | °C
As of 3:00 PM on Thursday 27 Nov 2014 (Local Time) from SBBU Reporting Station
Few Clouds Few Clouds  
Wind Chill: 86°   Ceiling: Unl
Heat Index: 95°   Visibility: 6mi
Dew Point: 75°   Wind: 6mph
Humidity: 70%   Direction: 230°SW
Pressure: 29.88"   Gusts: NA
Location:  22.17°S, 48.75°W
Report Text: SBBU 271700Z 23005KT 9999 FEW030 30/24 Q1012
Loading
Personal Weather Stations






























Interactive Weather Map New forecast layout! Learn more

10-Day Weather Forecast

Advertisements
Track Severe Weather on mobile